createdAt,value
2022-08-19T00:00:15.554Z,20.74
2022-08-19T00:02:17.164Z,20.74
2022-08-19T00:04:20.791Z,20.77
2022-08-19T00:06:22.378Z,20.70
2022-08-19T00:08:23.912Z,20.70
2022-08-19T00:10:25.586Z,20.73
2022-08-19T00:12:28.528Z,20.66
2022-08-19T00:14:30.390Z,20.70
2022-08-19T00:16:31.906Z,20.76
2022-08-19T00:18:33.739Z,20.94
2022-08-19T00:20:35.416Z,20.97
2022-08-19T00:22:37.138Z,20.99
2022-08-19T00:24:38.928Z,20.81
2022-08-19T00:26:41.521Z,20.82
2022-08-19T00:28:44.471Z,20.74
2022-08-19T00:30:46.106Z,20.74
2022-08-19T00:32:47.753Z,20.70
2022-08-19T00:34:49.340Z,20.61
2022-08-19T00:36:50.993Z,20.66
2022-08-19T00:38:52.813Z,20.58
2022-08-19T00:40:54.819Z,20.58
2022-08-19T00:42:56.514Z,20.60
2022-08-19T00:44:59.464Z,20.53
2022-08-19T00:47:01.249Z,20.47
2022-08-19T00:49:15.616Z,20.49
2022-08-19T00:51:17.204Z,20.54
2022-08-19T00:53:23.034Z,20.47
2022-08-19T00:55:26.844Z,20.48
2022-08-19T00:57:32.978Z,20.36
2022-08-19T01:00:00.833Z,20.43
2022-08-19T01:02:00.505Z,20.40
2022-08-19T01:04:02.170Z,20.32
2022-08-19T01:06:03.954Z,20.29
2022-08-19T01:08:07.137Z,20.43
2022-08-19T01:10:11.074Z,20.47
2022-08-19T01:12:12.873Z,20.41
2022-08-19T01:14:15.581Z,20.52
2022-08-19T01:16:20.122Z,20.58
2022-08-19T01:18:24.586Z,20.66
2022-08-19T01:20:26.685Z,20.75
2022-08-19T01:22:33.623Z,20.82
2022-08-19T01:24:35.845Z,20.84
2022-08-19T01:26:51.121Z,20.82
2022-08-19T01:28:57.422Z,20.86
2022-08-19T01:31:08.013Z,20.65
2022-08-19T01:33:10.064Z,20.59
2022-08-19T01:35:13.481Z,20.51
2022-08-19T01:37:15.839Z,20.50
2022-08-19T01:39:30.131Z,20.37
2022-08-19T01:41:31.777Z,20.29
2022-08-19T01:43:33.926Z,20.20
2022-08-19T01:45:36.410Z,20.24
2022-08-19T01:47:38.470Z,20.14
2022-08-19T01:49:40.152Z,20.02
2022-08-19T01:51:41.819Z,20.22
2022-08-19T01:53:43.449Z,20.21
2022-08-19T01:55:47.391Z,20.19
2022-08-19T01:57:53.186Z,20.06
2022-08-19T01:59:54.765Z,20.07
2022-08-19T02:01:56.320Z,20.04
2022-08-19T02:03:58.002Z,19.91
2022-08-19T02:06:01.129Z,19.90
2022-08-19T02:08:03.109Z,19.90
2022-08-19T02:10:06.634Z,20.00
2022-08-19T02:12:15.463Z,19.86
2022-08-19T02:14:17.053Z,19.92
2022-08-19T02:16:18.826Z,19.96
2022-08-19T02:18:20.381Z,19.82
2022-08-19T02:20:21.867Z,19.97
2022-08-19T02:22:23.859Z,19.97
2022-08-19T02:24:25.653Z,20.02
2022-08-19T02:26:27.315Z,19.99
2022-08-19T02:28:30.411Z,19.88
2022-08-19T02:30:32.043Z,19.85
2022-08-19T02:32:33.595Z,19.75
2022-08-19T02:34:46.344Z,19.66
2022-08-19T02:36:51.635Z,19.74
2022-08-19T02:38:54.529Z,19.66
2022-08-19T02:40:59.316Z,19.75
2022-08-19T02:43:01.528Z,19.91
2022-08-19T02:45:05.341Z,19.76
2022-08-19T02:47:07.332Z,20.00
2022-08-19T02:49:09.282Z,19.78
2022-08-19T02:51:17.311Z,19.80
2022-08-19T02:53:18.901Z,19.82
2022-08-19T02:55:20.533Z,19.72
2022-08-19T02:57:22.074Z,19.75
2022-08-19T02:59:23.628Z,19.97
2022-08-19T03:01:28.854Z,19.98
2022-08-19T03:03:30.574Z,19.91
2022-08-19T03:05:55.947Z,19.97
2022-08-19T03:07:53.710Z,19.88
2022-08-19T03:09:55.232Z,19.96
2022-08-19T03:11:57.075Z,19.81
2022-08-19T03:14:00.040Z,19.75
2022-08-19T03:16:05.569Z,19.79
2022-08-19T03:18:08.696Z,19.86
2022-08-19T03:20:11.123Z,19.81
2022-08-19T03:22:12.669Z,19.76
2022-08-19T03:24:15.430Z,19.66
2022-08-19T03:26:17.388Z,19.66
2022-08-19T03:28:18.939Z,19.67
2022-08-19T03:30:23.312Z,19.75
2022-08-19T03:32:32.440Z,19.69
2022-08-19T03:34:38.226Z,19.61
2022-08-19T03:36:40.141Z,19.68
2022-08-19T03:38:44.084Z,19.70
2022-08-19T03:40:45.611Z,19.61
2022-08-19T03:42:48.915Z,19.75
2022-08-19T03:44:51.145Z,19.64
2022-08-19T03:46:54.732Z,19.67
2022-08-19T03:48:58.756Z,19.55
2022-08-19T03:51:02.028Z,19.61
2022-08-19T03:53:03.576Z,19.56
2022-08-19T03:55:06.561Z,19.61
2022-08-19T03:57:08.118Z,19.52
2022-08-19T03:59:12.194Z,19.65
2022-08-19T04:01:17.132Z,19.47
2022-08-19T04:03:18.816Z,19.43
2022-08-19T04:05:20.360Z,19.50
2022-08-19T04:07:27.808Z,19.56
2022-08-19T04:09:29.391Z,19.66
2022-08-19T04:11:43.528Z,19.79
2022-08-19T04:13:46.034Z,19.66
2022-08-19T04:15:47.697Z,19.76
2022-08-19T04:17:49.432Z,19.64
2022-08-19T04:19:51.083Z,19.52
2022-08-19T04:21:55.224Z,19.56
2022-08-19T04:23:58.710Z,19.44
2022-08-19T04:26:01.084Z,19.54
2022-08-19T04:28:02.935Z,19.55
2022-08-19T04:30:05.476Z,19.54
2022-08-19T04:32:08.685Z,19.64
2022-08-19T04:34:12.936Z,19.60
2022-08-19T04:36:17.715Z,19.66
2022-08-19T04:38:22.941Z,19.66
2022-08-19T04:40:25.861Z,19.74
2022-08-19T04:42:30.691Z,19.81
2022-08-19T04:44:35.226Z,19.94
2022-08-19T04:46:40.066Z,19.92
2022-08-19T04:48:49.556Z,19.80
2022-08-19T04:50:51.478Z,19.92
2022-08-19T04:52:53.159Z,20.05
2022-08-19T04:54:55.117Z,20.18
2022-08-19T04:56:58.277Z,20.25
2022-08-19T04:59:00.243Z,20.21
2022-08-19T05:01:01.929Z,20.20
2022-08-19T05:03:03.603Z,20.38
2022-08-19T05:05:09.642Z,20.42
2022-08-19T05:07:11.408Z,20.87
2022-08-19T05:09:12.968Z,20.99
2022-08-19T05:11:18.555Z,20.98
2022-08-19T05:13:21.441Z,21.29
2022-08-19T05:15:23.021Z,21.41
2022-08-19T05:17:27.674Z,21.52
2022-08-19T05:19:29.946Z,21.72
2022-08-19T05:21:36.243Z,21.80
2022-08-19T05:23:38.234Z,21.79
2022-08-19T05:25:40.778Z,21.76
2022-08-19T05:27:43.287Z,21.96
2022-08-19T05:29:46.221Z,22.10
2022-08-19T05:31:49.512Z,22.20
2022-08-19T05:33:51.097Z,22.22
2022-08-19T05:35:52.701Z,22.10
2022-08-19T05:37:54.876Z,21.83
2022-08-19T05:40:00.608Z,21.88
2022-08-19T05:42:05.475Z,21.52
2022-08-19T05:44:07.010Z,21.60
2022-08-19T05:46:17.827Z,21.62
2022-08-19T05:48:20.179Z,21.62
2022-08-19T05:50:22.232Z,21.55
2022-08-19T05:52:25.698Z,21.47
2022-08-19T05:54:28.043Z,21.54
2022-08-19T05:56:29.775Z,21.45
2022-08-19T05:58:31.515Z,21.03
2022-08-19T06:00:33.074Z,21.19
2022-08-19T06:02:36.003Z,21.26
2022-08-19T06:04:37.617Z,21.04
2022-08-19T06:06:39.124Z,21.02
2022-08-19T06:08:40.811Z,21.06
2022-08-19T06:10:42.740Z,21.19
2022-08-19T06:12:44.270Z,21.12
2022-08-19T06:14:45.830Z,21.25
2022-08-19T06:16:48.089Z,21.22
2022-08-19T06:18:52.173Z,21.36
2022-08-19T06:20:55.911Z,21.40
2022-08-19T06:22:57.838Z,21.52
2022-08-19T06:24:59.412Z,21.55
2022-08-19T06:27:01.902Z,21.56
2022-08-19T06:29:04.795Z,21.68
2022-08-19T06:31:07.659Z,21.51
2022-08-19T06:33:09.243Z,21.35
2022-08-19T06:35:12.288Z,21.42
2022-08-19T06:37:14.866Z,21.55
2022-08-19T06:39:19.639Z,21.63
2022-08-19T06:41:21.244Z,21.49
2022-08-19T06:43:22.788Z,21.68
2022-08-19T06:45:35.447Z,21.42
2022-08-19T06:47:37.185Z,21.63
2022-08-19T06:49:38.879Z,21.65
2022-08-19T06:51:43.661Z,21.55
2022-08-19T06:53:46.459Z,21.49
2022-08-19T06:55:49.177Z,21.55
2022-08-19T06:57:50.852Z,21.47
2022-08-19T06:59:53.021Z,21.51
2022-08-19T07:01:57.139Z,21.26
2022-08-19T07:03:59.204Z,21.61
2022-08-19T07:06:05.389Z,21.55
2022-08-19T07:08:10.270Z,21.63
2022-08-19T07:10:12.129Z,21.79
2022-08-19T07:12:15.118Z,21.90
2022-08-19T07:14:19.395Z,21.92
2022-08-19T07:16:21.672Z,22.13
2022-08-19T07:18:30.852Z,22.17
2022-08-19T07:20:32.441Z,22.16
2022-08-19T07:22:33.988Z,22.45
2022-08-19T07:24:38.368Z,22.46
2022-08-19T07:26:45.348Z,22.50
2022-08-19T07:28:52.811Z,22.36
2022-08-19T07:30:54.821Z,22.38
2022-08-19T07:32:57.485Z,22.50
2022-08-19T07:34:59.089Z,22.55
2022-08-19T07:37:00.734Z,22.66
2022-08-19T07:39:06.091Z,22.56
2022-08-19T07:41:10.893Z,22.68
2022-08-19T07:43:16.979Z,22.54
2022-08-19T07:45:19.712Z,22.71
2022-08-19T07:47:50.423Z,22.84
2022-08-19T07:49:42.808Z,22.85
2022-08-19T07:51:45.173Z,22.97
2022-08-19T07:53:47.641Z,22.88
2022-08-19T07:55:49.886Z,22.91
2022-08-19T07:57:52.737Z,23.08
2022-08-19T07:59:54.278Z,23.01
2022-08-19T08:01:57.235Z,23.09
2022-08-19T08:03:59.170Z,23.03
2022-08-19T08:06:00.733Z,23.01
2022-08-19T08:08:02.479Z,22.84
2022-08-19T08:10:05.604Z,22.91
2022-08-19T08:12:32.911Z,22.84
2022-08-19T08:14:36.796Z,22.69
2022-08-19T08:16:46.800Z,22.50
2022-08-19T08:18:50.563Z,22.46
2022-08-19T08:20:55.466Z,22.61
2022-08-19T08:22:57.048Z,22.60
2022-08-19T08:25:02.161Z,22.69
2022-08-19T08:27:04.080Z,22.65
2022-08-19T08:29:13.212Z,22.69
2022-08-19T08:31:16.114Z,22.91
2022-08-19T08:33:20.049Z,22.98
2022-08-19T08:35:35.209Z,23.00
2022-08-19T08:37:36.920Z,23.06
2022-08-19T08:39:38.658Z,23.01
2022-08-19T08:41:47.543Z,23.20
2022-08-19T08:43:51.830Z,23.17
2022-08-19T08:45:59.919Z,23.25
2022-08-19T08:48:22.357Z,23.35
2022-08-19T08:50:33.003Z,23.15
2022-08-19T08:52:40.105Z,23.22
2022-08-19T08:54:48.979Z,23.07
2022-08-19T08:56:57.569Z,22.95
2022-08-19T08:59:02.782Z,23.01
2022-08-19T09:01:04.365Z,23.03
2022-08-19T09:03:15.217Z,22.98
2022-08-19T09:05:17.075Z,23.07
2022-08-19T09:07:38.036Z,22.92
2022-08-19T09:09:43.039Z,22.99
2022-08-19T09:11:57.671Z,23.01
2022-08-19T09:14:23.529Z,23.15
2022-08-19T09:16:31.561Z,23.30
2022-08-19T09:18:43.787Z,23.35
2022-08-19T09:20:46.503Z,23.22
2022-08-19T09:22:48.517Z,23.23
2022-08-19T09:24:50.316Z,23.31
2022-08-19T09:26:52.520Z,23.29
2022-08-19T09:28:54.613Z,23.26
2022-08-19T09:30:56.177Z,23.43
2022-08-19T09:32:57.922Z,23.48
2022-08-19T09:35:01.255Z,23.39
2022-08-19T09:37:05.133Z,23.51
2022-08-19T09:39:16.192Z,23.55
2022-08-19T09:41:20.015Z,23.65
2022-08-19T09:43:33.018Z,23.45
2022-08-19T09:45:35.699Z,23.46
2022-08-19T09:47:37.788Z,23.61
2022-08-19T09:49:42.530Z,23.66
2022-08-19T09:51:50.788Z,23.51
2022-08-19T09:53:53.050Z,23.50
2022-08-19T09:55:56.461Z,23.45
2022-08-19T09:57:57.989Z,23.32
2022-08-19T09:59:59.594Z,23.13
2022-08-19T10:02:03.957Z,23.02
2022-08-19T10:04:19.763Z,23.02
2022-08-19T10:06:39.922Z,23.05
2022-08-19T10:08:50.178Z,23.16
2022-08-19T10:10:52.576Z,23.16
2022-08-19T10:12:54.082Z,23.15
2022-08-19T10:14:55.621Z,23.26
2022-08-19T10:16:57.607Z,23.13
2022-08-19T10:19:00.916Z,23.17
2022-08-19T10:21:09.290Z,23.05
2022-08-19T10:23:13.244Z,23.03
2022-08-19T10:25:16.199Z,23.08
2022-08-19T10:27:17.764Z,22.95
2022-08-19T10:29:31.841Z,22.97
2022-08-19T10:32:00.761Z,22.93
2022-08-19T10:33:57.824Z,22.98
2022-08-19T10:36:01.017Z,22.84
2022-08-19T10:38:02.686Z,22.86
2022-08-19T10:40:06.591Z,22.90
2022-08-19T10:42:10.401Z,22.77
2022-08-19T10:44:13.987Z,22.72
2022-08-19T10:46:16.715Z,22.65
2022-08-19T10:48:19.577Z,22.80
2022-08-19T10:50:21.189Z,22.70
2022-08-19T10:52:32.482Z,22.55
2022-08-19T10:54:34.650Z,22.40
2022-08-19T10:56:36.806Z,22.54
2022-08-19T10:58:39.779Z,22.35
2022-08-19T11:00:42.017Z,22.59
2022-08-19T11:02:43.744Z,22.48
2022-08-19T11:04:45.491Z,22.48
2022-08-19T11:06:49.355Z,22.57
2022-08-19T11:08:50.888Z,22.54
2022-08-19T11:10:53.738Z,22.55
2022-08-19T11:12:55.347Z,22.54
2022-08-19T11:14:59.115Z,22.43
2022-08-19T11:17:00.887Z,22.61
2022-08-19T11:19:02.527Z,22.63
2022-08-19T11:21:09.445Z,22.36
2022-08-19T11:23:11.011Z,22.51
2022-08-19T11:25:12.849Z,22.54
2022-08-19T11:27:14.402Z,22.57
2022-08-19T11:29:18.888Z,22.34
2022-08-19T11:31:24.870Z,22.52
2022-08-19T11:33:31.176Z,22.63
2022-08-19T11:35:32.762Z,22.63
2022-08-19T11:37:34.374Z,22.53
2022-08-19T11:39:36.823Z,22.63
2022-08-19T11:41:38.490Z,22.63
2022-08-19T11:43:40.048Z,22.57
2022-08-19T11:45:41.597Z,22.58
2022-08-19T11:47:44.593Z,22.76
2022-08-19T11:49:46.894Z,22.64
2022-08-19T11:51:49.416Z,22.65
2022-08-19T11:53:51.823Z,22.75
2022-08-19T11:55:54.476Z,22.65
2022-08-19T11:57:56.166Z,22.83
2022-08-19T11:59:57.863Z,22.59
2022-08-19T12:01:59.465Z,22.54
2022-08-19T12:04:02.493Z,22.55
2022-08-19T12:06:06.091Z,22.76
2022-08-19T12:08:08.679Z,22.86
2022-08-19T12:10:10.875Z,23.15
2022-08-19T12:12:13.238Z,23.33
2022-08-19T12:14:14.970Z,23.47
2022-08-19T12:16:19.312Z,23.62
2022-08-19T12:18:21.074Z,23.60
2022-08-19T12:20:25.153Z,23.58
2022-08-19T12:22:26.721Z,23.30
2022-08-19T12:24:28.398Z,23.23
2022-08-19T12:26:30.841Z,23.33
2022-08-19T12:28:32.653Z,23.06
2022-08-19T12:30:34.195Z,23.25
2022-08-19T12:32:35.842Z,23.33
2022-08-19T12:34:37.402Z,23.35
2022-08-19T12:36:40.277Z,23.20
2022-08-19T12:38:42.528Z,23.42
2022-08-19T12:40:48.727Z,23.27
2022-08-19T12:42:50.301Z,23.13
2022-08-19T12:44:51.840Z,23.29
2022-08-19T12:46:53.856Z,23.30
2022-08-19T12:48:56.184Z,23.21
2022-08-19T12:50:57.790Z,23.41
2022-08-19T12:53:00.744Z,23.58
2022-08-19T12:55:02.532Z,23.54
2022-08-19T12:57:07.204Z,23.38
2022-08-19T12:59:08.791Z,23.64
2022-08-19T13:01:15.734Z,23.61
2022-08-19T13:03:19.133Z,23.75
2022-08-19T13:05:23.856Z,23.74
2022-08-19T13:07:25.590Z,23.84
2022-08-19T13:09:28.476Z,23.79
2022-08-19T13:11:30.171Z,23.79
2022-08-19T13:13:31.726Z,23.66
2022-08-19T13:15:35.292Z,23.60
2022-08-19T13:17:37.421Z,23.34
2022-08-19T13:19:38.987Z,23.21
2022-08-19T13:21:40.511Z,23.28
2022-08-19T13:23:44.185Z,23.14
2022-08-19T13:25:56.741Z,23.16
2022-08-19T13:27:58.387Z,23.18
2022-08-19T13:30:00.330Z,23.23
2022-08-19T13:32:01.909Z,23.14
2022-08-19T13:34:05.438Z,23.17
2022-08-19T13:36:07.418Z,23.28
2022-08-19T13:38:11.869Z,23.20
2022-08-19T13:40:15.734Z,23.22
2022-08-19T13:42:18.689Z,23.41
2022-08-19T13:44:20.889Z,23.43
2022-08-19T13:46:22.487Z,23.55
2022-08-19T13:48:25.020Z,23.57
2022-08-19T13:50:28.690Z,23.48
2022-08-19T13:52:31.114Z,23.52
2022-08-19T13:54:32.737Z,23.62
2022-08-19T13:56:34.309Z,23.67
2022-08-19T13:58:38.624Z,23.82
2022-08-19T14:00:43.711Z,23.85
2022-08-19T14:02:46.896Z,23.69
2022-08-19T14:04:48.514Z,23.69
2022-08-19T14:06:50.101Z,23.76
2022-08-19T14:08:51.898Z,23.92
2022-08-19T14:10:53.430Z,23.86
2022-08-19T14:12:55.932Z,23.88
2022-08-19T14:14:58.936Z,23.86
2022-08-19T14:17:00.457Z,23.73
2022-08-19T14:19:01.985Z,23.95
2022-08-19T14:21:03.992Z,23.93
2022-08-19T14:23:05.552Z,23.98
2022-08-19T14:25:09.513Z,24.02
2022-08-19T14:27:11.120Z,24.06
2022-08-19T14:29:12.654Z,24.08
2022-08-19T14:31:17.183Z,23.90
2022-08-19T14:33:18.731Z,24.01
2022-08-19T14:35:21.321Z,24.08
2022-08-19T14:37:22.843Z,23.95
2022-08-19T14:39:26.596Z,23.88
2022-08-19T14:41:28.585Z,23.92
2022-08-19T14:43:30.090Z,23.84
2022-08-19T14:45:34.769Z,23.63
2022-08-19T14:47:39.963Z,23.51
2022-08-19T14:49:44.849Z,23.57
2022-08-19T14:51:49.943Z,23.66
2022-08-19T14:53:51.901Z,23.51
2022-08-19T14:55:53.476Z,23.52
2022-08-19T14:57:55.219Z,23.52
2022-08-19T14:59:59.912Z,23.40
2022-08-19T15:02:20.206Z,23.35
2022-08-19T15:04:24.400Z,23.29
2022-08-19T15:06:26.298Z,23.46
2022-08-19T15:08:29.503Z,23.46
2022-08-19T15:10:31.357Z,23.33
2022-08-19T15:12:33.112Z,23.23
2022-08-19T15:14:37.834Z,23.08
2022-08-19T15:16:39.430Z,23.08
2022-08-19T15:18:41.518Z,23.02
2022-08-19T15:20:44.714Z,23.08
2022-08-19T15:22:48.660Z,23.04
2022-08-19T15:24:50.179Z,23.08
2022-08-19T15:26:52.622Z,22.94
2022-08-19T15:28:54.685Z,22.91
2022-08-19T15:30:56.268Z,22.71
2022-08-19T15:32:58.796Z,22.72
2022-08-19T15:35:00.377Z,22.68
2022-08-19T15:37:03.456Z,22.57
2022-08-19T15:39:06.319Z,22.55
2022-08-19T15:41:17.118Z,22.54
2022-08-19T15:43:19.983Z,22.41
2022-08-19T15:45:22.540Z,22.31
2022-08-19T15:47:24.094Z,22.29
2022-08-19T15:49:25.695Z,22.26
2022-08-19T15:51:29.634Z,22.14
2022-08-19T15:53:32.838Z,22.10
2022-08-19T15:55:43.682Z,22.09
2022-08-19T15:57:45.227Z,22.19
2022-08-19T15:59:47.763Z,22.24
2022-08-19T16:01:49.487Z,22.24
2022-08-19T16:03:52.780Z,22.14
2022-08-19T16:05:54.310Z,22.10
2022-08-19T16:07:56.299Z,22.17
2022-08-19T16:09:59.243Z,22.20
2022-08-19T16:12:21.216Z,22.07
2022-08-19T16:14:22.837Z,22.03
2022-08-19T16:16:31.097Z,22.09
2022-08-19T16:18:35.552Z,22.23
2022-08-19T16:20:37.087Z,22.21
2022-08-19T16:22:39.249Z,22.26
2022-08-19T16:24:40.964Z,22.34
2022-08-19T16:26:44.997Z,22.37
2022-08-19T16:28:47.464Z,22.27
2022-08-19T16:30:50.998Z,22.40
2022-08-19T16:32:52.737Z,22.37
2022-08-19T16:34:54.275Z,22.52
2022-08-19T16:36:55.863Z,22.53
2022-08-19T16:38:57.456Z,22.54
2022-08-19T16:40:59.429Z,22.38
2022-08-19T16:43:02.692Z,22.36
2022-08-19T16:45:05.215Z,22.38
2022-08-19T16:47:06.950Z,22.56
2022-08-19T16:49:09.258Z,22.45
2022-08-19T16:51:12.124Z,22.31
2022-08-19T16:53:13.851Z,22.17
2022-08-19T16:55:15.773Z,22.27
2022-08-19T16:57:17.341Z,22.23
2022-08-19T16:59:21.585Z,22.18
2022-08-19T17:01:23.381Z,22.24
2022-08-19T17:03:35.659Z,22.09
2022-08-19T17:05:42.489Z,22.14
2022-08-19T17:07:44.048Z,22.09
2022-08-19T17:09:45.583Z,22.14
2022-08-19T17:11:48.133Z,21.98
2022-08-19T17:13:50.496Z,22.04
2022-08-19T17:15:53.491Z,21.94
2022-08-19T17:17:59.562Z,22.04
2022-08-19T17:20:02.532Z,22.00
2022-08-19T17:22:04.213Z,21.78
2022-08-19T17:24:06.776Z,22.00
2022-08-19T17:26:08.353Z,21.93
2022-08-19T17:28:20.780Z,21.77
2022-08-19T17:30:23.500Z,21.77
2022-08-19T17:32:26.545Z,21.81
2022-08-19T17:34:28.164Z,21.95
2022-08-19T17:36:31.918Z,21.90
2022-08-19T17:38:33.908Z,22.00
2022-08-19T17:40:35.693Z,21.81
2022-08-19T17:42:38.254Z,21.66
2022-08-19T17:44:39.792Z,21.70
2022-08-19T17:46:41.410Z,21.82
2022-08-19T17:48:47.364Z,21.72
2022-08-19T17:50:51.217Z,21.75
2022-08-19T17:52:53.180Z,21.60
2022-08-19T17:54:54.787Z,21.58
2022-08-19T17:56:56.383Z,21.72
2022-08-19T17:59:00.520Z,21.85
2022-08-19T18:01:03.095Z,21.66
2022-08-19T18:03:06.302Z,21.79
2022-08-19T18:05:09.979Z,21.91
2022-08-19T18:07:11.789Z,21.66
2022-08-19T18:09:13.688Z,21.62
2022-08-19T18:11:16.537Z,21.86
2022-08-19T18:13:18.164Z,21.80
2022-08-19T18:15:21.053Z,21.77
2022-08-19T18:17:22.605Z,21.64
2022-08-19T18:19:25.356Z,21.47
2022-08-19T18:21:32.987Z,21.41
2022-08-19T18:23:45.533Z,21.38
2022-08-19T18:25:47.518Z,21.29
2022-08-19T18:27:49.144Z,21.40
2022-08-19T18:29:50.895Z,21.42
2022-08-19T18:31:52.447Z,21.36
2022-08-19T18:33:54.278Z,21.56
2022-08-19T18:35:55.867Z,21.60
2022-08-19T18:38:01.188Z,21.51
2022-08-19T18:40:03.830Z,21.47
2022-08-19T18:42:05.858Z,21.41
2022-08-19T18:44:07.518Z,21.54
2022-08-19T18:46:09.225Z,21.56
2022-08-19T18:48:24.249Z,21.44
2022-08-19T18:50:29.552Z,21.64
2022-08-19T18:52:31.152Z,21.59
2022-08-19T18:54:34.534Z,21.56
2022-08-19T18:56:36.198Z,21.64
2022-08-19T18:58:38.602Z,21.66
2022-08-19T19:00:40.244Z,21.65
2022-08-19T19:02:41.993Z,21.33
2022-08-19T19:04:44.118Z,21.30
2022-08-19T19:06:46.215Z,21.34
2022-08-19T19:08:48.583Z,21.29
2022-08-19T19:10:51.506Z,21.23
2022-08-19T19:12:53.040Z,21.13
2022-08-19T19:14:54.645Z,21.24
2022-08-19T19:16:56.478Z,21.13
2022-08-19T19:19:00.583Z,21.07
2022-08-19T19:21:02.201Z,21.06
2022-08-19T19:23:04.270Z,21.26
2022-08-19T19:25:06.237Z,21.27
2022-08-19T19:27:09.637Z,21.35
2022-08-19T19:29:11.826Z,21.40
2022-08-19T19:31:16.022Z,21.29
2022-08-19T19:33:17.624Z,21.31
2022-08-19T19:35:19.174Z,21.41
2022-08-19T19:37:20.966Z,21.41
2022-08-19T19:39:45.447Z,21.29
2022-08-19T19:41:44.404Z,21.22
2022-08-19T19:43:47.407Z,21.14
2022-08-19T19:45:58.495Z,21.22
2022-08-19T19:48:00.276Z,21.18
2022-08-19T19:50:14.361Z,21.27
2022-08-19T19:52:17.074Z,21.25
2022-08-19T19:54:23.343Z,21.14
2022-08-19T19:56:25.432Z,21.27
2022-08-19T19:58:28.940Z,21.27
2022-08-19T20:00:32.377Z,21.08
2022-08-19T20:02:34.011Z,21.13
2022-08-19T20:04:35.591Z,21.06
2022-08-19T20:06:37.229Z,21.17
2022-08-19T20:08:39.333Z,21.34
2022-08-19T20:10:42.742Z,21.33
2022-08-19T20:12:44.312Z,21.35
2022-08-19T20:14:45.879Z,21.23
2022-08-19T20:16:50.599Z,21.39
2022-08-19T20:18:52.203Z,21.35
2022-08-19T20:20:57.423Z,21.41
2022-08-19T20:22:59.015Z,21.34
2022-08-19T20:25:00.701Z,21.34
2022-08-19T20:27:04.263Z,21.42
2022-08-19T20:29:13.319Z,21.15
2022-08-19T20:31:25.390Z,21.29
2022-08-19T20:33:32.708Z,21.36
2022-08-19T20:35:36.683Z,21.30
2022-08-19T20:37:38.274Z,21.16
2022-08-19T20:39:39.835Z,21.13
2022-08-19T20:41:41.434Z,21.11
2022-08-19T20:43:44.380Z,21.23
2022-08-19T20:45:48.647Z,21.24
2022-08-19T20:47:50.210Z,21.24
2022-08-19T20:49:53.132Z,21.24
2022-08-19T20:51:56.501Z,21.12
2022-08-19T20:53:58.712Z,21.28
2022-08-19T20:56:00.544Z,21.33
2022-08-19T20:58:02.203Z,21.25
2022-08-19T21:00:06.615Z,21.06
2022-08-19T21:02:08.180Z,20.95
2022-08-19T21:04:09.717Z,20.94
2022-08-19T21:06:14.320Z,20.92
2022-08-19T21:08:17.038Z,20.81
2022-08-19T21:10:18.684Z,20.88
2022-08-19T21:12:20.220Z,20.83
2022-08-19T21:14:21.788Z,20.89
2022-08-19T21:16:23.338Z,20.89
2022-08-19T21:18:25.143Z,20.78
2022-08-19T21:20:26.892Z,20.85
2022-08-19T21:22:29.788Z,20.95
2022-08-19T21:24:31.892Z,20.89
2022-08-19T21:26:33.471Z,20.92
2022-08-19T21:28:36.438Z,20.95
2022-08-19T21:30:40.170Z,20.92
2022-08-19T21:32:41.725Z,20.99
2022-08-19T21:34:46.272Z,20.96
2022-08-19T21:36:48.218Z,20.86
2022-08-19T21:38:51.084Z,20.84
2022-08-19T21:40:52.670Z,20.76
2022-08-19T21:42:54.624Z,20.66
2022-08-19T21:44:56.156Z,20.82
2022-08-19T21:46:57.677Z,20.84
2022-08-19T21:48:59.216Z,20.96
2022-08-19T21:51:00.947Z,20.87
2022-08-19T21:53:02.554Z,20.81
2022-08-19T21:55:07.384Z,20.74
2022-08-19T21:57:10.378Z,20.80
2022-08-19T21:59:12.601Z,20.86
2022-08-19T22:01:14.239Z,21.01
2022-08-19T22:03:17.200Z,20.95
2022-08-19T22:05:19.554Z,20.97
2022-08-19T22:07:22.249Z,20.85
2022-08-19T22:09:23.787Z,20.86
2022-08-19T22:11:27.635Z,20.83
2022-08-19T22:13:35.918Z,20.86
2022-08-19T22:15:40.822Z,20.83
2022-08-19T22:17:43.036Z,20.89
2022-08-19T22:19:44.596Z,20.88
2022-08-19T22:21:46.522Z,20.84
2022-08-19T22:23:48.299Z,20.82
2022-08-19T22:25:49.828Z,20.68
2022-08-19T22:27:53.256Z,20.76
2022-08-19T22:29:58.427Z,20.75
2022-08-19T22:32:00.697Z,20.62
2022-08-19T22:34:22.199Z,20.75
2022-08-19T22:36:23.802Z,20.67
2022-08-19T22:38:26.494Z,20.64
2022-08-19T22:40:29.708Z,20.75
2022-08-19T22:42:31.922Z,20.69
2022-08-19T22:44:36.114Z,20.70
2022-08-19T22:46:37.785Z,20.64
2022-08-19T22:48:39.344Z,20.55
2022-08-19T22:50:42.946Z,20.66
2022-08-19T22:52:52.129Z,20.67
2022-08-19T22:54:56.132Z,20.71
2022-08-19T22:56:57.637Z,20.55
2022-08-19T22:58:59.269Z,20.68
2022-08-19T23:01:03.067Z,20.58
2022-08-19T23:03:04.682Z,20.55
2022-08-19T23:05:08.472Z,20.44
2022-08-19T23:07:09.985Z,20.53
2022-08-19T23:09:16.978Z,20.70
2022-08-19T23:11:18.756Z,20.62
2022-08-19T23:13:20.296Z,20.55
2022-08-19T23:15:25.169Z,20.47
2022-08-19T23:17:28.134Z,20.39
2022-08-19T23:19:29.673Z,20.38
2022-08-19T23:21:31.229Z,20.38
2022-08-19T23:23:32.911Z,20.33
2022-08-19T23:25:36.336Z,20.52
2022-08-19T23:27:37.938Z,20.47
2022-08-19T23:29:39.537Z,20.34
2022-08-19T23:31:41.060Z,20.28
2022-08-19T23:33:51.597Z,20.31
2022-08-19T23:35:55.907Z,20.25
2022-08-19T23:37:57.542Z,20.46
2022-08-19T23:39:59.143Z,20.38
2022-08-19T23:42:00.800Z,20.35
2022-08-19T23:44:02.613Z,20.25
2022-08-19T23:46:10.457Z,20.15
2022-08-19T23:48:12.442Z,20.27
2022-08-19T23:50:15.638Z,20.54
2022-08-19T23:52:17.206Z,20.64
2022-08-19T23:54:18.817Z,20.59
2022-08-19T23:56:20.340Z,20.59
2022-08-19T23:58:22.622Z,20.55
